Carlson, Washington
Current Conditions -  °F | °C
As of 4:13 PM on Friday 28 Nov 2014 (Local Time) from KGRF Reporting Station
Light Rain Light Rain  
Wind Chill: 36°   Ceiling: 1000
Heat Index: 41°   Visibility: 5mi
Dew Point: 41°   Wind: 7mph
Humidity: 100%   Direction: 350°N
Pressure: 29.48"   Gusts: NA
Location:  46.6944°N, 122.245°W
Report Text: KGRF 290013Z AUTO 35006KT 5SM -RA BR SCT005 OVC010 05/05 A2948 RMK AO2 CIG 008V012 $
Loading
Personal Weather Stations






























Interactive Weather Map New forecast layout! Learn more

10-Day Weather Forecast

Advertisements
Track Severe Weather on mobile